createdAt,value
2023-03-23T15:59:09.766Z,15.70
2023-03-23T16:01:40.930Z,15.70
2023-03-23T16:04:15.226Z,15.60
2023-03-23T16:06:43.192Z,15.70
2023-03-23T16:09:16.739Z,15.60
2023-03-23T16:11:43.844Z,15.50
2023-03-23T16:14:11.448Z,15.60
2023-03-23T16:16:51.257Z,15.50
2023-03-23T16:19:20.698Z,15.50
2023-03-23T16:21:47.631Z,15.50
2023-03-23T16:24:14.472Z,15.40
2023-03-23T16:26:41.501Z,15.40
2023-03-23T16:29:33.745Z,15.30
2023-03-23T16:32:01.301Z,15.40
2023-03-23T16:34:30.069Z,15.40
2023-03-23T16:36:56.878Z,15.40
2023-03-23T16:39:23.772Z,15.40
2023-03-23T16:41:50.669Z,15.40
2023-03-23T16:44:17.751Z,15.40
2023-03-23T16:46:44.591Z,15.30
2023-03-23T16:49:11.480Z,15.40
2023-03-23T16:51:38.308Z,15.40
2023-03-23T16:54:05.157Z,15.40
2023-03-23T16:56:32.510Z,15.30
2023-03-23T16:58:59.334Z,15.30
2023-03-23T17:01:26.518Z,15.30
2023-03-23T17:03:54.246Z,15.30
2023-03-23T17:06:21.239Z,15.30
2023-03-23T17:08:48.129Z,15.30
2023-03-23T17:11:15.293Z,15.20
2023-03-23T17:13:42.198Z,15.20
2023-03-23T17:16:09.352Z,15.20
2023-03-23T17:18:36.542Z,15.10
2023-03-23T17:21:03.675Z,15.10
2023-03-23T17:23:30.901Z,15.10
2023-03-23T17:25:57.894Z,15.10
2023-03-23T17:28:25.738Z,15.10
2023-03-23T17:30:53.276Z,15.10
2023-03-23T17:33:20.203Z,15.00
2023-03-23T17:35:51.427Z,15.10
2023-03-23T17:38:18.559Z,15.00
2023-03-23T17:40:45.711Z,15.10
2023-03-23T17:43:12.757Z,15.00
2023-03-23T17:45:41.169Z,14.90
2023-03-23T17:48:08.398Z,14.90
2023-03-23T17:50:36.452Z,15.00
2023-03-23T17:53:04.350Z,14.90
2023-03-23T17:55:31.787Z,14.90
2023-03-23T17:57:58.566Z,14.90
2023-03-23T18:00:25.825Z,14.80
2023-03-23T18:02:52.647Z,14.80
2023-03-23T18:05:19.531Z,14.80
2023-03-23T18:07:46.381Z,14.80
2023-03-23T18:10:14.327Z,14.70
2023-03-23T18:12:42.179Z,14.70
2023-03-23T18:15:10.953Z,14.70
2023-03-23T18:17:38.629Z,14.80
2023-03-23T18:20:08.587Z,14.70
2023-03-23T18:22:35.471Z,14.70
2023-03-23T18:25:04.369Z,14.70
2023-03-23T18:27:31.994Z,14.60
2023-03-23T18:29:59.232Z,14.60
2023-03-23T18:32:27.579Z,14.60
2023-03-23T18:34:55.526Z,14.60
2023-03-23T18:37:22.451Z,14.60
2023-03-23T18:39:49.225Z,14.50
2023-03-23T18:42:16.201Z,14.50
2023-03-23T18:44:43.154Z,14.40
2023-03-23T18:47:09.966Z,14.40
2023-03-23T18:49:36.847Z,14.30
2023-03-23T18:52:03.933Z,14.30
2023-03-23T18:54:34.730Z,14.20
2023-03-23T18:57:02.470Z,14.10
2023-03-23T18:59:34.516Z,14.00
2023-03-23T19:02:01.925Z,14.00
2023-03-23T19:04:31.529Z,14.00
2023-03-23T19:07:01.538Z,14.00
2023-03-23T19:09:29.448Z,13.90
2023-03-23T19:11:56.718Z,13.90
2023-03-23T19:14:23.686Z,13.90
2023-03-23T19:16:50.493Z,14.00
2023-03-23T19:19:17.237Z,13.90
2023-03-23T19:21:47.038Z,13.90
2023-03-23T19:24:14.425Z,13.90
2023-03-23T19:26:44.571Z,13.80
2023-03-23T19:31:48.073Z,13.80
2023-03-23T19:34:16.718Z,13.70
2023-03-23T19:36:54.411Z,13.70
2023-03-23T19:39:26.633Z,13.70
2023-03-23T19:41:54.045Z,13.70
2023-03-23T19:44:20.970Z,13.60
2023-03-23T19:46:50.630Z,13.60
2023-03-23T19:49:17.960Z,13.60
2023-03-23T19:51:45.049Z,13.60
2023-03-23T19:54:13.234Z,13.60
2023-03-23T19:56:43.134Z,13.50
2023-03-23T19:59:14.407Z,13.50
2023-03-23T20:01:43.036Z,13.50
2023-03-23T20:04:11.374Z,13.50
2023-03-23T20:06:39.175Z,13.50
2023-03-23T20:09:07.157Z,13.40
2023-03-23T20:11:34.575Z,13.40
2023-03-23T20:14:02.034Z,13.40
2023-03-23T20:16:29.213Z,13.40
2023-03-23T20:19:00.034Z,13.40
2023-03-23T20:21:27.740Z,13.40
2023-03-23T20:23:57.446Z,13.30
2023-03-23T20:26:35.902Z,13.40
2023-03-23T20:29:03.761Z,13.40
2023-03-23T20:31:36.816Z,13.40
2023-03-23T20:34:08.866Z,13.30
2023-03-23T20:36:45.115Z,13.20
2023-03-23T20:39:21.025Z,13.20
2023-03-23T20:41:50.852Z,13.30
2023-03-23T20:44:19.650Z,13.30
2023-03-23T20:46:49.738Z,13.20
2023-03-23T20:49:19.656Z,13.30
2023-03-23T20:51:47.068Z,13.20
2023-03-23T20:54:16.504Z,13.20
2023-03-23T20:56:44.749Z,13.20
2023-03-23T20:59:11.912Z,13.20
2023-03-23T21:01:39.883Z,13.20
2023-03-23T21:04:15.130Z,13.20
2023-03-23T21:06:44.276Z,13.20
2023-03-23T21:09:13.068Z,13.30
2023-03-23T21:11:40.196Z,13.20
2023-03-23T21:14:07.141Z,13.20
2023-03-23T21:16:34.501Z,13.20
2023-03-23T21:19:04.236Z,13.20
2023-03-23T21:21:31.727Z,13.10
2023-03-23T21:23:58.715Z,13.10
2023-03-23T21:26:28.719Z,13.10
2023-03-23T21:28:59.839Z,13.10
2023-03-23T21:31:34.835Z,13.10
2023-03-23T21:34:02.302Z,13.10
2023-03-23T21:36:29.507Z,13.10
2023-03-23T21:38:57.764Z,13.10
2023-03-23T21:41:25.138Z,13.00
2023-03-23T21:43:52.045Z,13.00
2023-03-23T21:46:19.494Z,13.00
2023-03-23T21:48:52.565Z,13.00
2023-03-23T21:51:27.016Z,13.00
2023-03-23T21:53:55.679Z,13.10
2023-03-23T21:56:26.102Z,13.10
2023-03-23T21:58:53.084Z,13.00
2023-03-23T22:01:22.095Z,13.00
2023-03-23T22:03:49.699Z,13.10
2023-03-23T22:06:24.876Z,13.10
2023-03-23T22:08:53.196Z,13.10
2023-03-23T22:11:26.321Z,13.00
2023-03-23T22:13:56.442Z,13.00
2023-03-23T22:16:24.461Z,13.00
2023-03-23T22:18:53.261Z,13.00
2023-03-23T22:21:22.240Z,13.00
2023-03-23T22:23:49.604Z,13.00
2023-03-23T22:26:16.783Z,13.00
2023-03-23T22:28:46.358Z,13.00
2023-03-23T22:31:18.538Z,13.00
2023-03-23T22:33:47.666Z,13.00
2023-03-23T22:36:16.854Z,12.90
2023-03-23T22:38:47.053Z,12.90
2023-03-23T22:41:25.298Z,12.90
2023-03-23T22:43:53.290Z,12.90
2023-03-23T22:46:21.812Z,12.80
2023-03-23T22:48:48.782Z,12.80
2023-03-23T22:51:18.530Z,12.80
2023-03-23T22:53:46.100Z,12.90
2023-03-23T22:56:14.170Z,12.80
2023-03-23T22:58:41.057Z,12.80
2023-03-23T23:01:20.402Z,12.80
2023-03-23T23:03:48.770Z,12.80
2023-03-23T23:06:17.858Z,12.80
2023-03-23T23:08:46.072Z,12.80
2023-03-23T23:11:18.449Z,12.80
2023-03-23T23:13:46.649Z,12.70
2023-03-23T23:16:17.233Z,12.70
2023-03-23T23:18:47.473Z,12.70
2023-03-23T23:21:22.574Z,12.60
2023-03-23T23:23:51.621Z,12.70
2023-03-23T23:26:19.814Z,12.70
2023-03-23T23:28:48.422Z,12.60
2023-03-23T23:31:29.712Z,12.60
2023-03-23T23:33:59.272Z,12.70
2023-03-23T23:36:27.852Z,12.70
2023-03-23T23:38:54.845Z,12.70
2023-03-23T23:41:23.151Z,12.70
2023-03-23T23:43:49.986Z,12.70
2023-03-23T23:46:17.126Z,12.70
2023-03-23T23:48:44.819Z,12.70
2023-03-23T23:51:15.260Z,12.70
2023-03-23T23:53:44.158Z,12.70
2023-03-23T23:56:13.324Z,12.70
2023-03-23T23:58:40.429Z,12.70
